createdAt,value
2018-06-19T00:02:23.816Z,91.40
2018-06-19T00:04:52.504Z,91.00
2018-06-19T00:07:21.209Z,90.70
2018-06-19T00:09:49.883Z,90.80
2018-06-19T00:12:18.652Z,90.70
2018-06-19T00:14:47.357Z,90.60
2018-06-19T00:17:16.073Z,90.70
2018-06-19T00:19:49.134Z,91.00
2018-06-19T00:22:17.954Z,91.10
2018-06-19T00:24:46.655Z,91.00
2018-06-19T00:27:15.376Z,90.90
2018-06-19T00:29:44.056Z,90.80
2018-06-19T00:32:12.747Z,90.60
2018-06-19T00:34:41.494Z,90.80
2018-06-19T00:37:10.241Z,90.70
2018-06-19T00:39:38.912Z,90.60
2018-06-19T00:42:07.600Z,90.60
2018-06-19T00:44:36.298Z,90.60
2018-06-19T00:47:04.972Z,90.60
2018-06-19T00:49:33.677Z,90.80
2018-06-19T00:52:07.539Z,90.90
2018-06-19T00:54:37.188Z,91.20
2018-06-19T00:57:05.899Z,91.10
2018-06-19T00:59:34.575Z,91.10
2018-06-19T01:02:03.406Z,91.00
2018-06-19T01:04:32.323Z,91.00
2018-06-19T01:07:01.036Z,91.30
2018-06-19T01:09:29.698Z,91.50
2018-06-19T01:11:58.394Z,91.40
2018-06-19T01:14:27.037Z,91.50
2018-06-19T01:16:55.765Z,91.40
2018-06-19T01:19:24.412Z,91.30
2018-06-19T01:21:53.084Z,91.50
2018-06-19T01:24:21.771Z,91.80
2018-06-19T01:26:50.427Z,91.90
2018-06-19T01:31:47.676Z,91.90
2018-06-19T01:34:16.275Z,91.90
2018-06-19T01:36:44.931Z,91.90
2018-06-19T01:39:13.628Z,92.00
2018-06-19T01:41:42.478Z,92.10
2018-06-19T01:44:11.169Z,92.30
2018-06-19T01:46:39.895Z,92.40
2018-06-19T01:49:08.574Z,92.70
2018-06-19T01:51:37.338Z,92.90
2018-06-19T01:54:06.083Z,92.80
2018-06-19T01:56:34.755Z,92.60
2018-06-19T01:59:03.472Z,92.50
2018-06-19T02:01:32.159Z,92.70
2018-06-19T02:04:00.836Z,92.60
2018-06-19T02:06:29.461Z,92.40
2018-06-19T02:08:58.193Z,92.80
2018-06-19T02:11:26.872Z,92.70
2018-06-19T02:13:55.579Z,92.80
2018-06-19T02:16:24.227Z,92.80
2018-06-19T02:18:52.846Z,93.00
2018-06-19T02:21:21.636Z,92.90
2018-06-19T02:23:50.343Z,92.90
2018-06-19T02:26:19.045Z,92.90
2018-06-19T02:28:47.764Z,93.00
2018-06-19T02:34:02.902Z,93.40
2018-06-19T02:36:31.610Z,93.50
2018-06-19T02:39:00.272Z,93.70
2018-06-19T02:41:42.595Z,93.50
2018-06-19T02:44:11.287Z,93.40
2018-06-19T02:46:39.971Z,93.50
2018-06-19T02:49:08.642Z,93.60
2018-06-19T02:51:37.332Z,93.80
2018-06-19T02:54:06.203Z,94.00
2018-06-19T02:56:34.886Z,94.10
2018-06-19T02:59:03.578Z,93.70
2018-06-19T03:01:32.244Z,94.00
2018-06-19T03:04:00.894Z,94.10
2018-06-19T03:06:29.555Z,94.10
2018-06-19T03:08:58.260Z,94.20
2018-06-19T03:11:32.183Z,94.10
2018-06-19T03:14:00.867Z,94.20
2018-06-19T03:16:29.538Z,94.20
2018-06-19T03:18:58.166Z,94.30
2018-06-19T03:21:26.988Z,94.20
2018-06-19T03:23:55.660Z,94.20
2018-06-19T03:26:24.355Z,94.20
2018-06-19T03:28:53.175Z,94.30
2018-06-19T03:31:21.897Z,94.30
2018-06-19T03:33:50.657Z,94.30
2018-06-19T03:36:19.306Z,94.20
2018-06-19T03:38:48.032Z,93.90
2018-06-19T03:41:16.634Z,94.10
2018-06-19T03:43:45.378Z,94.40
2018-06-19T03:46:14.127Z,94.50
2018-06-19T03:48:42.706Z,94.80
2018-06-19T03:54:13.862Z,94.90
2018-06-19T03:56:42.572Z,94.60
2018-06-19T03:59:11.212Z,94.80
2018-06-19T04:01:40.015Z,94.90
2018-06-19T04:04:08.771Z,94.90
2018-06-19T04:06:37.425Z,94.90
2018-06-19T04:09:08.180Z,95.10
2018-06-19T04:11:36.999Z,95.10
2018-06-19T04:14:05.649Z,95.30
2018-06-19T04:16:34.324Z,95.50
2018-06-19T04:19:02.999Z,96.10
2018-06-19T04:21:31.707Z,95.70
2018-06-19T04:24:00.376Z,95.60
2018-06-19T04:26:29.090Z,95.90
2018-06-19T04:28:57.766Z,95.70
2018-06-19T04:31:26.745Z,96.00
2018-06-19T04:33:55.408Z,96.20
2018-06-19T04:36:24.120Z,96.30
2018-06-19T04:38:53.194Z,96.50
2018-06-19T04:41:22.097Z,96.40
2018-06-19T04:43:50.839Z,96.40
2018-06-19T04:46:19.506Z,96.50
2018-06-19T04:48:48.328Z,96.50
2018-06-19T04:51:22.259Z,96.60
2018-06-19T04:53:50.952Z,96.50
2018-06-19T04:56:19.649Z,96.50
2018-06-19T04:58:48.522Z,96.50
2018-06-19T05:01:17.187Z,96.70
2018-06-19T05:03:45.990Z,96.80
2018-06-19T05:06:14.696Z,96.90
2018-06-19T05:08:43.340Z,97.00
2018-06-19T05:11:12.129Z,97.00
2018-06-19T05:13:40.860Z,96.90
2018-06-19T05:16:09.536Z,96.90
2018-06-19T05:18:38.252Z,96.70
2018-06-19T05:21:07.138Z,96.40
2018-06-19T05:23:35.842Z,96.60
2018-06-19T05:26:04.511Z,96.50
2018-06-19T05:28:33.232Z,96.40
2018-06-19T05:31:24.691Z,96.40
2018-06-19T05:33:53.407Z,96.20
2018-06-19T05:36:22.045Z,96.20
2018-06-19T05:38:51.051Z,96.10
2018-06-19T05:41:20.039Z,95.90
2018-06-19T05:43:48.793Z,95.80
2018-06-19T05:46:17.486Z,95.80
2018-06-19T05:48:46.261Z,95.80
2018-06-19T05:51:15.043Z,96.00
2018-06-19T05:53:43.711Z,95.90
2018-06-19T05:56:12.375Z,95.90
2018-06-19T05:58:41.034Z,95.90
2018-06-19T06:01:10.475Z,95.70
2018-06-19T06:06:07.406Z,96.10
2018-06-19T06:08:36.126Z,96.10
2018-06-19T06:11:18.434Z,96.10
2018-06-19T06:13:47.129Z,96.00
2018-06-19T06:16:15.792Z,96.10
2018-06-19T06:18:44.415Z,96.20
2018-06-19T06:21:13.106Z,96.10
2018-06-19T06:23:41.793Z,95.90
2018-06-19T06:26:10.518Z,95.80
2018-06-19T06:28:39.260Z,95.90
2018-06-19T06:31:08.313Z,95.70
2018-06-19T06:33:36.940Z,95.70
2018-06-19T06:36:06.355Z,95.70
2018-06-19T06:38:35.065Z,95.60
2018-06-19T06:41:03.781Z,95.40
2018-06-19T06:43:32.588Z,95.60
2018-06-19T06:46:01.191Z,95.30
2018-06-19T06:48:30.244Z,95.20
2018-06-19T06:51:04.038Z,95.20
2018-06-19T06:53:32.720Z,95.30
2018-06-19T06:56:01.425Z,95.20
2018-06-19T06:58:30.143Z,95.30
2018-06-19T07:00:58.858Z,95.40
2018-06-19T07:03:27.491Z,95.40
2018-06-19T07:05:56.432Z,95.40
2018-06-19T07:08:25.073Z,95.60
2018-06-19T07:10:53.724Z,95.70
2018-06-19T07:15:50.817Z,95.50
2018-06-19T07:18:19.460Z,95.40
2018-06-19T07:20:48.186Z,95.30
2018-06-19T07:23:17.126Z,94.80
2018-06-19T07:25:45.818Z,94.40
2018-06-19T07:28:14.521Z,93.70
2018-06-19T07:30:43.309Z,92.60
2018-06-19T07:33:12.467Z,91.50
2018-06-19T07:35:41.112Z,90.60
2018-06-19T07:38:09.811Z,90.30
2018-06-19T07:40:38.508Z,89.50
2018-06-19T07:43:07.183Z,84.80
2018-06-19T07:45:36.290Z,85.50
2018-06-19T07:48:04.979Z,82.30
2018-06-19T07:50:33.663Z,81.40
2018-06-19T07:53:02.407Z,79.40
2018-06-19T07:55:31.134Z,78.30
2018-06-19T07:57:59.868Z,78.60
2018-06-19T08:00:28.554Z,78.10
2018-06-19T08:02:57.340Z,78.90
2018-06-19T08:05:25.975Z,77.50
2018-06-19T08:07:54.712Z,76.10
2018-06-19T08:10:23.564Z,76.20
2018-06-19T08:12:52.596Z,77.80
2018-06-19T08:15:21.371Z,78.10
2018-06-19T08:17:50.127Z,78.20
2018-06-19T08:20:18.915Z,78.50
2018-06-19T08:22:47.694Z,78.30
2018-06-19T08:25:16.447Z,77.50
2018-06-19T08:27:45.197Z,77.70
2018-06-19T08:30:14.054Z,76.90
2018-06-19T08:32:42.992Z,76.90
2018-06-19T08:35:11.820Z,76.60
2018-06-19T08:37:40.535Z,75.90
2018-06-19T08:40:09.203Z,77.00
2018-06-19T08:42:37.887Z,76.30
2018-06-19T08:45:06.636Z,75.70
2018-06-19T08:47:35.332Z,75.70
2018-06-19T08:50:04.182Z,75.20
2018-06-19T08:52:33.551Z,75.20
2018-06-19T08:55:02.709Z,75.70
2018-06-19T08:57:31.704Z,74.70
2018-06-19T09:00:00.932Z,73.70
2018-06-19T09:02:30.457Z,73.70
2018-06-19T09:04:59.223Z,72.90
2018-06-19T09:07:28.021Z,72.50
2018-06-19T09:09:57.006Z,73.40
2018-06-19T09:12:26.057Z,71.10
2018-06-19T09:14:54.859Z,71.60
2018-06-19T09:17:23.611Z,70.70
2018-06-19T09:19:52.560Z,70.70
2018-06-19T09:22:21.316Z,70.10
2018-06-19T09:24:50.505Z,69.20
2018-06-19T09:27:19.739Z,68.60
2018-06-19T09:29:48.718Z,68.30
2018-06-19T09:32:17.422Z,69.20
2018-06-19T09:34:46.233Z,68.30
2018-06-19T09:37:15.023Z,68.20
2018-06-19T09:39:43.838Z,68.30
2018-06-19T09:45:14.906Z,68.70
2018-06-19T09:47:44.046Z,68.00
2018-06-19T09:50:12.872Z,67.00
2018-06-19T09:52:51.699Z,67.80
2018-06-19T09:55:20.415Z,69.00
2018-06-19T09:57:49.296Z,67.80
2018-06-19T10:00:22.366Z,66.90
2018-06-19T10:02:51.859Z,68.00
2018-06-19T10:05:21.253Z,66.30
2018-06-19T10:07:50.017Z,65.00
2018-06-19T10:10:18.883Z,66.70
2018-06-19T10:13:10.298Z,64.20
2018-06-19T10:15:39.038Z,62.80
2018-06-19T10:18:07.788Z,63.00
2018-06-19T10:20:37.705Z,64.20
2018-06-19T10:23:15.981Z,63.20
2018-06-19T10:25:45.609Z,63.70
2018-06-19T10:28:14.755Z,64.20
2018-06-19T10:30:44.106Z,66.90
2018-06-19T10:33:12.817Z,65.70
2018-06-19T10:35:41.521Z,66.90
2018-06-19T10:38:10.279Z,66.60
2018-06-19T10:40:38.995Z,67.70
2018-06-19T10:43:07.876Z,67.20
2018-06-19T10:45:36.522Z,67.60
2018-06-19T10:48:05.240Z,68.00
2018-06-19T10:50:33.953Z,67.70
2018-06-19T10:53:12.123Z,67.40
2018-06-19T10:55:40.865Z,65.50
2018-06-19T10:58:09.704Z,66.70
2018-06-19T11:00:38.480Z,65.90
2018-06-19T11:03:13.391Z,63.70
2018-06-19T11:05:42.555Z,67.00
2018-06-19T11:10:39.975Z,67.10
2018-06-19T11:13:23.149Z,66.90
2018-06-19T11:15:52.510Z,66.50
2018-06-19T11:18:21.212Z,65.70
2018-06-19T11:23:48.281Z,66.10
2018-06-19T11:26:16.967Z,64.70
2018-06-19T11:28:45.692Z,65.20
2018-06-19T11:31:28.032Z,66.30
2018-06-19T11:33:56.833Z,64.80
2018-06-19T11:36:25.538Z,64.80
2018-06-19T11:38:54.319Z,65.80
2018-06-19T11:41:23.046Z,65.40
2018-06-19T11:43:51.787Z,64.10
2018-06-19T11:46:20.549Z,65.50
2018-06-19T11:48:49.250Z,64.30
2018-06-19T11:51:17.981Z,64.30
2018-06-19T11:53:46.679Z,64.80
2018-06-19T11:56:15.447Z,64.40
2018-06-19T11:58:44.168Z,63.90
2018-06-19T12:01:13.168Z,63.90
2018-06-19T12:03:41.870Z,66.70
2018-06-19T12:06:10.611Z,82.70
2018-06-19T12:08:41.682Z,75.80
2018-06-19T12:11:10.592Z,75.50
2018-06-19T12:13:39.293Z,74.90
2018-06-19T12:16:08.017Z,75.20
2018-06-19T12:18:36.666Z,75.30
2018-06-19T12:21:05.300Z,74.00
2018-06-19T12:23:34.010Z,74.90
2018-06-19T12:26:02.679Z,74.60
2018-06-19T12:28:31.421Z,74.60
2018-06-19T12:31:00.491Z,75.10
2018-06-19T12:33:29.219Z,76.30
2018-06-19T12:35:57.866Z,76.70
2018-06-19T12:38:26.602Z,75.30
2018-06-19T12:41:04.898Z,66.40
2018-06-19T12:43:33.718Z,66.40
2018-06-19T12:46:02.640Z,66.20
2018-06-19T12:48:31.376Z,64.70
2018-06-19T12:52:12.062Z,65.30
2018-06-19T12:55:22.061Z,67.00
2018-06-19T12:57:51.351Z,66.60
2018-06-19T13:00:20.015Z,66.90
2018-06-19T13:05:07.307Z,67.30
2018-06-19T13:10:08.680Z,65.30
2018-06-19T13:13:20.958Z,66.60
2018-06-19T13:15:50.558Z,67.00
2018-06-19T13:18:30.876Z,66.10
2018-06-19T13:20:59.595Z,66.40
2018-06-19T13:23:28.325Z,65.70
2018-06-19T13:25:57.039Z,63.30
2018-06-19T13:30:40.445Z,64.40
2018-06-19T13:33:09.218Z,63.30
2018-06-19T13:35:38.123Z,64.10
2018-06-19T13:38:06.856Z,64.50
2018-06-19T13:41:23.344Z,63.30
2018-06-19T13:44:12.573Z,63.50
2018-06-19T13:46:41.693Z,63.20
2018-06-19T13:49:10.414Z,62.40
2018-06-19T13:51:57.995Z,61.00
2018-06-19T13:54:26.808Z,60.20
2018-06-19T13:57:15.492Z,61.20
2018-06-19T13:59:44.175Z,60.30
2018-06-19T14:02:12.946Z,60.00
2018-06-19T14:04:41.767Z,60.80
2018-06-19T14:07:10.552Z,60.00
2018-06-19T14:09:50.592Z,59.80
2018-06-19T14:15:12.898Z,62.40
2018-06-19T14:17:41.597Z,61.40
2018-06-19T14:20:10.434Z,61.60
2018-06-19T14:22:56.993Z,62.30
2018-06-19T14:25:25.831Z,62.00
2018-06-19T14:27:54.554Z,60.70
2018-06-19T14:30:23.313Z,62.00
2018-06-19T14:33:05.625Z,62.00
2018-06-19T14:35:34.549Z,61.20
2018-06-19T14:38:03.267Z,61.20
2018-06-19T14:40:32.246Z,61.40
2018-06-19T14:43:00.959Z,61.00
2018-06-19T14:45:29.662Z,60.70
2018-06-19T14:47:58.476Z,62.00
2018-06-19T14:50:27.232Z,61.00
2018-06-19T14:53:01.151Z,61.50
2018-06-19T14:55:29.846Z,61.20
2018-06-19T14:57:59.420Z,60.20
2018-06-19T15:00:28.207Z,61.30
2018-06-19T15:03:02.301Z,59.90
2018-06-19T15:05:31.305Z,59.80
2018-06-19T15:08:00.494Z,61.10
2018-06-19T15:10:31.930Z,59.60
2018-06-19T15:13:00.881Z,59.70
2018-06-19T15:15:29.701Z,60.80
2018-06-19T15:17:58.562Z,60.10
2018-06-19T15:20:27.288Z,60.30
2018-06-19T15:22:56.125Z,60.20
2018-06-19T15:25:24.997Z,60.50
2018-06-19T15:30:22.226Z,60.70
2018-06-19T15:33:04.493Z,60.50
2018-06-19T15:35:33.223Z,61.70
2018-06-19T15:38:01.904Z,59.90
2018-06-19T15:40:30.632Z,59.40
2018-06-19T15:42:59.475Z,59.50
2018-06-19T15:45:28.252Z,59.30
2018-06-19T15:47:56.965Z,59.50
2018-06-19T15:50:25.804Z,60.10
2018-06-19T15:52:59.536Z,60.00
2018-06-19T15:55:28.630Z,59.90
2018-06-19T15:57:57.451Z,59.30
2018-06-19T16:00:26.220Z,59.20
2018-06-19T16:02:54.983Z,60.00
2018-06-19T16:05:23.806Z,60.20
2018-06-19T16:07:57.925Z,59.20
2018-06-19T16:10:26.708Z,59.10
2018-06-19T16:15:48.343Z,59.80
2018-06-19T16:18:17.166Z,59.50
2018-06-19T16:20:45.926Z,59.50
2018-06-19T16:26:07.326Z,60.30
2018-06-19T16:28:36.029Z,59.90
2018-06-19T16:34:02.818Z,60.60
2018-06-19T16:36:31.652Z,61.30
2018-06-19T16:39:00.442Z,61.50
2018-06-19T16:47:15.720Z,62.20
2018-06-19T16:49:44.508Z,62.20
2018-06-19T16:52:13.597Z,62.70
2018-06-19T16:54:42.283Z,62.50
2018-06-19T16:57:11.049Z,62.10
2018-06-19T16:59:39.863Z,62.80
2018-06-19T17:02:17.894Z,63.50
2018-06-19T17:04:46.615Z,62.80
2018-06-19T17:07:15.304Z,63.70
2018-06-19T17:09:44.200Z,63.80
2018-06-19T17:12:13.139Z,63.40
2018-06-19T17:14:41.876Z,65.10
2018-06-19T17:17:10.598Z,65.20
2018-06-19T17:19:39.275Z,64.80
2018-06-19T17:22:08.117Z,65.50
2018-06-19T17:24:36.796Z,66.00
2018-06-19T17:27:05.486Z,66.20
2018-06-19T17:29:34.232Z,66.00
2018-06-19T17:32:03.098Z,66.20
2018-06-19T17:34:31.720Z,66.40
2018-06-19T17:37:00.428Z,66.70
2018-06-19T17:39:29.326Z,66.80
2018-06-19T17:42:07.592Z,67.00
2018-06-19T17:44:36.275Z,67.30
2018-06-19T17:47:04.973Z,67.00
2018-06-19T17:49:33.680Z,67.00
2018-06-19T17:52:11.778Z,67.00
2018-06-19T17:54:40.466Z,66.90
2018-06-19T17:57:09.172Z,67.50
2018-06-19T17:59:37.952Z,67.90
2018-06-19T18:02:20.303Z,67.80
2018-06-19T18:04:49.009Z,66.90
2018-06-19T18:07:17.684Z,66.80
2018-06-19T18:09:46.379Z,67.70
2018-06-19T18:12:15.300Z,68.50
2018-06-19T18:14:44.023Z,69.00
2018-06-19T18:17:12.704Z,69.80
2018-06-19T18:19:41.438Z,69.90
2018-06-19T18:22:10.302Z,70.30
2018-06-19T18:24:39.059Z,70.50
2018-06-19T18:27:07.775Z,70.30
2018-06-19T18:29:36.539Z,70.60
2018-06-19T18:35:05.174Z,71.60
2018-06-19T18:37:33.896Z,72.00
2018-06-19T18:40:02.600Z,72.50
2018-06-19T18:42:31.323Z,73.00
2018-06-19T18:45:00.008Z,74.80
2018-06-19T18:47:28.714Z,75.90
2018-06-19T18:49:57.421Z,75.80
2018-06-19T18:52:31.351Z,76.20
2018-06-19T18:55:00.124Z,76.80
2018-06-19T18:57:28.804Z,76.50
2018-06-19T18:59:57.476Z,76.40
2018-06-19T19:05:32.704Z,77.00
2018-06-19T19:08:01.410Z,76.80
2018-06-19T19:10:35.475Z,77.30
2018-06-19T19:13:04.272Z,77.00
2018-06-19T19:15:38.187Z,76.60
2018-06-19T19:18:12.122Z,76.30
2018-06-19T19:20:40.857Z,76.70
2018-06-19T19:23:09.590Z,76.20
2018-06-19T19:25:38.316Z,76.20
2018-06-19T19:28:12.188Z,76.20
2018-06-19T19:30:40.931Z,76.10
2018-06-19T19:33:09.688Z,76.60
2018-06-19T19:35:38.384Z,77.00
2018-06-19T19:38:12.335Z,77.40
2018-06-19T19:40:41.048Z,77.20
2018-06-19T19:46:02.612Z,77.90
2018-06-19T19:48:36.487Z,78.40
2018-06-19T19:51:05.247Z,78.70
2018-06-19T19:53:34.018Z,79.00
2018-06-19T19:56:07.906Z,79.50
2018-06-19T19:58:41.671Z,79.70
2018-06-19T20:01:15.564Z,80.00
2018-06-19T20:03:44.269Z,81.10
2018-06-19T20:06:13.211Z,83.00
2018-06-19T20:08:41.903Z,83.70
2018-06-19T20:11:10.812Z,84.20
2018-06-19T20:13:39.503Z,85.10
2018-06-19T20:16:08.397Z,85.80
2018-06-19T20:18:37.109Z,86.00
2018-06-19T20:21:05.859Z,85.40
2018-06-19T20:23:34.486Z,85.40
2018-06-19T20:26:03.218Z,85.40
2018-06-19T20:28:31.964Z,85.20
2018-06-19T20:31:00.658Z,85.70
2018-06-19T20:33:29.326Z,86.00
2018-06-19T20:35:58.052Z,86.20
2018-06-19T20:38:27.109Z,86.30
2018-06-19T20:40:55.809Z,86.60
2018-06-19T20:43:33.843Z,87.20
2018-06-19T20:46:02.541Z,88.20
2018-06-19T20:48:31.232Z,88.20
2018-06-19T20:50:59.929Z,88.70
2018-06-19T20:53:28.642Z,89.20
2018-06-19T20:55:57.315Z,90.10
2018-06-19T20:58:26.095Z,90.20
2018-06-19T21:00:54.873Z,90.20
2018-06-19T21:03:23.584Z,90.10
2018-06-19T21:05:52.317Z,90.20
2018-06-19T21:08:23.914Z,90.20
2018-06-19T21:10:52.623Z,90.20
2018-06-19T21:13:30.667Z,90.30
2018-06-19T21:15:59.285Z,90.40
2018-06-19T21:18:28.040Z,90.40
2018-06-19T21:20:56.953Z,90.30
2018-06-19T21:23:25.617Z,90.40
2018-06-19T21:25:54.311Z,90.40
2018-06-19T21:28:23.056Z,90.40
2018-06-19T21:30:51.762Z,90.50
2018-06-19T21:33:20.481Z,90.50
2018-06-19T21:35:49.207Z,90.50
2018-06-19T21:38:17.909Z,90.30
2018-06-19T21:40:46.521Z,90.40
2018-06-19T21:43:24.736Z,90.40
2018-06-19T21:45:53.336Z,90.20
2018-06-19T21:48:22.049Z,90.20
2018-06-19T21:50:50.663Z,90.50
2018-06-19T21:56:01.076Z,90.50
2018-06-19T21:58:29.780Z,90.50
2018-06-19T22:00:58.452Z,90.40
2018-06-19T22:03:27.169Z,90.40
2018-06-19T22:05:55.848Z,90.20
2018-06-19T22:08:28.652Z,90.10
2018-06-19T22:10:57.307Z,90.10
2018-06-19T22:13:26.203Z,90.10
2018-06-19T22:15:54.913Z,90.20
2018-06-19T22:18:23.548Z,90.10
2018-06-19T22:20:52.252Z,90.20
2018-06-19T22:23:20.932Z,90.20
2018-06-19T22:25:49.540Z,90.10
2018-06-19T22:28:18.209Z,90.20
2018-06-19T22:30:46.932Z,90.50
2018-06-19T22:35:43.927Z,90.50
2018-06-19T22:38:12.610Z,90.80
2018-06-19T22:40:41.310Z,90.80
2018-06-19T22:46:02.728Z,90.70
2018-06-19T22:48:31.396Z,90.70
2018-06-19T22:51:00.037Z,90.70
2018-06-19T22:53:28.659Z,90.70
2018-06-19T22:55:57.346Z,90.60
2018-06-19T22:58:26.055Z,90.60
2018-06-19T23:00:54.724Z,90.70
2018-06-19T23:03:41.473Z,91.20
2018-06-19T23:06:10.223Z,91.30
2018-06-19T23:08:38.930Z,91.10
2018-06-19T23:11:07.726Z,90.90
2018-06-19T23:13:36.425Z,90.70
2018-06-19T23:16:05.148Z,90.90
2018-06-19T23:18:33.846Z,90.90
2018-06-19T23:21:02.570Z,91.00
2018-06-19T23:23:31.362Z,91.00
2018-06-19T23:26:00.020Z,91.10
2018-06-19T23:28:28.690Z,91.10
2018-06-19T23:30:57.448Z,91.20
2018-06-19T23:33:26.251Z,91.30
2018-06-19T23:35:54.869Z,91.10
2018-06-19T23:38:23.551Z,91.10
2018-06-19T23:40:52.244Z,91.20
2018-06-19T23:43:20.990Z,91.10
2018-06-19T23:45:49.642Z,91.10
2018-06-19T23:48:18.330Z,91.10
2018-06-19T23:50:47.081Z,91.40
2018-06-19T23:53:15.876Z,91.00
2018-06-19T23:55:44.526Z,91.00
2018-06-19T23:58:13.199Z,91.00
